Time;durP1;ratioP1;P1;durP2;ratioP2;P2;SDS_P1;SDS_P2;PMS_P1;PMS_P2;Temp;Humidity;BMP_temperature;BMP_pressure;BME280_temperature;BME280_humidity;BME280_pressure;Samples;Min_cycle;Max_cycle;Signal;HPM_P1;HPM_P2
2022/04/07 00:01:06;;;;;;;7.33;3.53;;;10.00;99.90;;;;;;5119163;28;20040;-79
2022/04/07 00:03:32;;;;;;;8.57;3.63;;;9.90;99.90;;;;;;5089540;27;20313;-78
2022/04/07 00:05:58;;;;;;;11.00;3.70;;;10.00;99.90;;;;;;5134110;27;20027;-78
2022/04/07 00:08:23;;;;;;;9.93;3.77;;;9.90;99.90;;;;;;5119214;27;20104;-78
2022/04/07 00:10:50;;;;;;;6.20;3.20;;;10.10;99.90;;;;;;5119290;27;20272;-78
2022/04/07 00:13:19;;;;;;;9.75;4.50;;;10.00;99.90;;;;;;5106324;28;20043;-78
2022/04/07 00:15:44;;;;;;;11.52;3.78;;;10.00;99.90;;;;;;5130982;27;20124;-79
2022/04/07 00:18:10;;;;;;;7.38;2.83;;;9.90;99.90;;;;;;5131763;27;20387;-77
2022/04/07 00:20:36;;;;;;;6.43;3.00;;;9.90;99.90;;;;;;5117525;27;20035;-78
2022/04/07 00:23:03;;;;;;;7.15;2.25;;;10.00;99.90;;;;;;5129055;27;20084;-77
2022/04/07 00:25:30;;;;;;;7.63;2.90;;;9.70;99.90;;;;;;5114065;27;20205;-78
2022/04/07 00:27:56;;;;;;;7.55;2.05;;;9.70;99.90;;;;;;5133542;27;20039;-78
2022/04/07 00:30:22;;;;;;;5.60;2.03;;;9.70;99.90;;;;;;5119119;27;20090;-78
2022/04/07 00:32:49;;;;;;;6.15;1.80;;;9.70;99.90;;;;;;5118777;27;20039;-78
2022/04/07 00:35:15;;;;;;;5.72;1.90;;;9.70;99.90;;;;;;5131921;27;20363;-78
2022/04/07 00:37:42;;;;;;;5.38;1.38;;;9.70;99.90;;;;;;5115999;27;20071;-78
2022/04/07 00:40:09;;;;;;;10.02;2.00;;;9.60;99.90;;;;;;5111447;27;20078;-77
2022/04/07 00:42:49;;;;;;;7.63;2.10;;;9.60;99.90;;;;;;5115918;27;20054;-78
2022/04/07 00:45:16;;;;;;;9.25;2.08;;;9.70;99.90;;;;;;5122206;27;20035;-79
2022/04/07 00:47:43;;;;;;;10.73;2.42;;;9.50;99.90;;;;;;5123641;27;20046;-78
2022/04/07 00:50:11;;;;;;;8.10;2.53;;;9.60;99.90;;;;;;5125866;27;20042;-79
2022/04/07 00:52:41;;;;;;;12.73;2.88;;;9.60;99.90;;;;;;5127018;27;20043;-78
2022/04/07 00:55:07;;;;;;;7.15;1.90;;;9.60;99.90;;;;;;5123822;27;20062;-78
2022/04/07 00:57:35;;;;;;;6.10;2.05;;;9.50;99.90;;;;;;5108424;27;20055;-78
2022/04/07 01:00:01;;;;;;;10.63;2.22;;;9.60;99.90;;;;;;5127766;27;20050;-78
2022/04/07 01:02:27;;;;;;;;;;;9.60;99.90;;;;;;5127682;27;20050;-79
2022/04/07 01:04:53;;;;;;;10.40;2.38;;;9.70;99.90;;;;;;5130865;27;20377;-78
2022/04/07 01:07:19;;;;;;;7.13;2.28;;;9.60;99.90;;;;;;5115729;27;20050;-78
2022/04/07 01:09:45;;;;;;;5.85;2.00;;;9.70;99.90;;;;;;5116278;27;20035;-78
2022/04/07 01:12:11;;;;;;;8.55;2.10;;;9.60;99.90;;;;;;5118114;27;20047;-78
2022/04/07 01:14:55;;;;;;;11.47;2.40;;;9.50;99.90;;;;;;5112800;27;20039;-78
2022/04/07 01:17:21;;;;;;;7.25;2.03;;;9.50;99.90;;;;;;5128471;27;20042;-78
2022/04/07 01:19:47;;;;;;;14.55;2.67;;;9.50;99.90;;;;;;5118479;27;20241;-78
2022/04/07 01:22:14;;;;;;;11.70;2.50;;;9.60;99.90;;;;;;5128155;27;20126;-78
2022/04/07 01:24:40;;;;;;;10.80;2.75;;;9.70;99.90;;;;;;5133279;27;20433;-78
2022/04/07 01:27:05;;;;;;;13.07;3.53;;;9.50;99.90;;;;;;5125786;27;20047;-78
2022/04/07 01:29:31;;;;;;;14.25;3.22;;;9.60;99.90;;;;;;5130034;27;20118;-79
2022/04/07 01:31:59;;;;;;;14.00;3.30;;;9.50;99.90;;;;;;5100146;27;20047;-79
2022/04/07 01:34:25;;;;;;;10.32;3.30;;;9.60;99.90;;;;;;5122621;27;20172;-79
2022/04/07 01:36:52;;;;;;;9.45;2.63;;;9.30;99.90;;;;;;5122391;27;20479;-79
2022/04/07 01:39:21;;;;;;;10.20;2.75;;;9.20;99.90;;;;;;5102644;28;20055;-79
2022/04/07 01:41:48;;;;;;;15.52;3.80;;;9.20;99.90;;;;;;5123191;27;20042;-79
2022/04/07 01:44:17;;;;;;;11.07;3.13;;;9.20;99.90;;;;;;5120096;27;20196;-79
2022/04/07 01:46:43;;;;;;;12.23;3.60;;;9.30;99.90;;;;;;5127745;27;20039;-79
2022/04/07 01:49:10;;;;;;;15.13;4.05;;;9.30;99.90;;;;;;5104536;28;20042;-79
2022/04/07 01:51:37;;;;;;;12.43;3.22;;;9.40;99.90;;;;;;5121831;27;20493;-79
2022/04/07 01:54:03;;;;;;;13.18;4.00;;;9.40;99.90;;;;;;5124516;27;20112;-79
2022/04/07 01:56:30;;;;;;;11.68;3.75;;;9.40;99.90;;;;;;5122210;27;20113;-79
2022/04/07 01:58:56;;;;;;;12.88;5.25;;;9.40;99.90;;;;;;5123176;27;20067;-79
2022/04/07 02:01:22;;;;;;;10.43;3.63;;;9.40;99.90;;;;;;5118387;27;20088;-79
2022/04/07 02:03:47;;;;;;;12.65;3.80;;;9.30;99.90;;;;;;5130876;27;20066;-79
2022/04/07 02:06:18;;;;;;;9.02;3.47;;;9.40;99.90;;;;;;5124063;27;20081;-79
2022/04/07 02:08:45;;;;;;;9.73;3.65;;;9.30;99.90;;;;;;5127050;27;20038;-78
2022/04/07 02:11:11;;;;;;;16.02;4.45;;;9.30;99.90;;;;;;5107776;28;20040;-78
2022/04/07 02:13:39;;;;;;;13.15;3.60;;;9.30;99.90;;;;;;5127103;27;20058;-79
2022/04/07 02:16:06;;;;;;;11.52;3.90;;;9.30;99.90;;;;;;5123372;27;20119;-79
2022/04/07 02:18:32;;;;;;;8.10;3.17;;;9.40;99.90;;;;;;5126679;27;20032;-78
2022/04/07 02:20:57;;;;;;;11.77;3.90;;;9.40;99.90;;;;;;5116115;27;20505;-79
2022/04/07 02:23:23;;;;;;;16.20;4.43;;;9.40;99.90;;;;;;5118863;27;20479;-78
2022/04/07 02:25:49;;;;;;;14.18;3.28;;;9.30;99.90;;;;;;5120819;27;20050;-78
2022/04/07 02:28:15;;;;;;;14.93;3.63;;;9.50;99.90;;;;;;5118434;27;20074;-78
2022/04/07 02:30:40;;;;;;;13.30;2.97;;;9.50;99.90;;;;;;5113712;27;20071;-78
2022/04/07 02:33:06;;;;;;;19.23;3.97;;;9.50;99.90;;;;;;5121171;27;20108;-78
2022/04/07 02:35:32;;;;;;;20.40;3.40;;;9.40;99.90;;;;;;5108778;27;20328;-78
2022/04/07 02:38:00;;;;;;;12.00;3.20;;;9.60;99.90;;;;;;5118537;27;20391;-79
2022/04/07 02:40:26;;;;;;;16.90;3.53;;;9.40;99.90;;;;;;5120391;27;20281;-79
2022/04/07 02:42:52;;;;;;;11.30;2.85;;;9.40;99.90;;;;;;5103935;27;20503;-79
2022/04/07 02:45:18;;;;;;;13.90;3.47;;;9.50;99.90;;;;;;5126355;27;20043;-78
2022/04/07 02:47:43;;;;;;;16.63;3.97;;;9.50;99.90;;;;;;5129484;27;20375;-78
2022/04/07 02:50:09;;;;;;;14.63;3.30;;;9.50;99.90;;;;;;5123770;27;20057;-79
2022/04/07 02:52:35;;;;;;;12.80;3.72;;;9.60;99.90;;;;;;5123871;27;20043;-78
2022/04/07 02:55:01;;;;;;;15.70;4.70;;;9.50;99.90;;;;;;5120614;27;20031;-78
2022/04/07 02:57:30;;;;;;;21.15;4.18;;;9.60;99.90;;;;;;5124220;27;20100;-79
2022/04/07 02:59:58;;;;;;;16.52;4.30;;;9.60;99.90;;;;;;5101924;27;20043;-79
2022/04/07 03:02:24;;;;;;;11.73;3.78;;;9.60;99.90;;;;;;5123629;27;20039;-79
2022/04/07 03:04:50;;;;;;;11.77;3.55;;;9.70;99.90;;;;;;5123337;27;20050;-78
2022/04/07 03:07:16;;;;;;;12.02;4.22;;;9.70;99.90;;;;;;5124014;27;20084;-78
2022/04/07 03:09:42;;;;;;;12.57;4.15;;;9.70;99.90;;;;;;5099936;27;20513;-79
2022/04/07 03:12:09;;;;;;;16.52;4.10;;;9.60;99.90;;;;;;5115416;27;20054;-78
2022/04/07 03:14:35;;;;;;;18.35;4.68;;;9.60;99.90;;;;;;5094169;27;20047;-78
2022/04/07 03:17:01;;;;;;;7.78;3.88;;;9.60;99.90;;;;;;5125010;27;20027;-80
2022/04/07 03:19:27;;;;;;;11.85;4.00;;;9.60;99.90;;;;;;5114501;27;20042;-79
2022/04/07 03:21:52;;;;;;;11.65;3.88;;;9.70;99.90;;;;;;5115656;27;20035;-78
2022/04/07 03:24:18;;;;;;;7.82;4.05;;;9.60;99.90;;;;;;5098319;28;20433;-79
2022/04/07 03:26:44;;;;;;;16.27;4.50;;;9.50;99.90;;;;;;5123379;27;20051;-78
2022/04/07 03:29:10;;;;;;;11.52;3.78;;;9.70;99.90;;;;;;5125618;27;20054;-78
2022/04/07 03:31:35;;;;;;;10.25;3.67;;;9.70;99.90;;;;;;5120696;27;20046;-78
2022/04/07 03:34:01;;;;;;;13.30;3.77;;;9.70;99.90;;;;;;5130396;27;20046;-78
2022/04/07 03:36:27;;;;;;;15.32;3.88;;;9.70;99.90;;;;;;5110156;27;20088;-78
2022/04/07 03:38:53;;;;;;;10.17;3.37;;;9.70;99.90;;;;;;5124296;27;20402;-79
2022/04/07 03:41:18;;;;;;;6.05;2.85;;;9.80;99.90;;;;;;5105789;28;20613;-78
2022/04/07 03:43:44;;;;;;;10.23;3.30;;;9.70;99.90;;;;;;5100348;28;20477;-78
2022/04/07 03:46:11;;;;;;;13.82;3.25;;;9.70;99.90;;;;;;5114553;27;20065;-78
2022/04/07 03:48:37;;;;;;;13.95;3.80;;;9.80;99.90;;;;;;5117564;27;20510;-78
2022/04/07 03:51:03;;;;;;;10.52;3.47;;;9.80;99.90;;;;;;5125432;27;20499;-78
2022/04/07 03:53:29;;;;;;;11.93;3.58;;;9.70;99.90;;;;;;5112575;27;20132;-78
2022/04/07 03:55:54;;;;;;;10.60;3.20;;;9.80;99.90;;;;;;5118967;27;20043;-78
2022/04/07 03:58:21;;;;;;;8.63;3.00;;;9.70;99.90;;;;;;5120772;27;20037;-78
2022/04/07 04:00:47;;;;;;;13.30;3.67;;;9.80;99.90;;;;;;5116768;28;20051;-78
2022/04/07 04:03:13;;;;;;;12.07;2.50;;;9.60;99.90;;;;;;5115691;28;20048;-79
2022/04/07 04:05:39;;;;;;;12.00;2.83;;;9.70;99.90;;;;;;5115821;28;20116;-79
2022/04/07 04:08:04;;;;;;;13.98;2.85;;;9.80;99.90;;;;;;5122439;27;20039;-79
2022/04/07 04:10:30;;;;;;;15.15;2.58;;;9.70;99.90;;;;;;5120440;28;20042;-78
2022/04/07 04:12:56;;;;;;;14.53;2.87;;;9.70;99.90;;;;;;5097159;28;20031;-79
2022/04/07 04:15:22;;;;;;;15.90;3.58;;;9.70;99.90;;;;;;5099541;28;20316;-79
2022/04/07 04:17:48;;;;;;;16.00;2.97;;;9.70;99.90;;;;;;5103558;28;20050;-79
2022/04/07 04:20:14;;;;;;;13.52;3.28;;;9.70;99.90;;;;;;5110288;28;20039;-79
2022/04/07 04:22:40;;;;;;;15.32;3.22;;;9.70;99.90;;;;;;5110663;27;20043;-79
2022/04/07 04:25:08;;;;;;;18.08;3.05;;;9.70;99.90;;;;;;5105461;28;20048;-79
2022/04/07 04:27:34;;;;;;;21.08;3.80;;;9.60;99.90;;;;;;5108403;28;20078;-79
2022/04/07 04:30:00;;;;;;;15.43;3.58;;;9.50;99.90;;;;;;5112256;28;20379;-79
2022/04/07 04:32:25;;;;;;;12.48;3.05;;;9.50;99.90;;;;;;5120637;27;20039;-80
2022/04/07 04:34:51;;;;;;;13.23;3.63;;;9.60;99.90;;;;;;5120317;27;20031;-80
2022/04/07 04:37:17;;;;;;;13.67;3.30;;;9.50;99.90;;;;;;5125118;27;20047;-80
2022/04/07 04:39:43;;;;;;;20.58;3.10;;;9.40;99.90;;;;;;5098523;28;20292;-79
2022/04/07 04:42:09;;;;;;;19.55;3.85;;;9.40;99.90;;;;;;5119677;27;20043;-80
2022/04/07 04:44:35;;;;;;;12.07;2.83;;;9.40;99.90;;;;;;5100987;28;20037;-80
2022/04/07 04:47:00;;;;;;;15.52;3.05;;;9.40;99.90;;;;;;5126271;27;20031;-80
2022/04/07 04:49:26;;;;;;;12.87;3.63;;;9.40;99.90;;;;;;5113179;27;20447;-80
2022/04/07 04:51:52;;;;;;;18.83;3.33;;;9.40;99.90;;;;;;5104945;28;20309;-80
2022/04/07 04:54:18;;;;;;;18.00;3.38;;;9.40;99.90;;;;;;5123066;27;20074;-81
2022/04/07 04:56:44;;;;;;;20.02;3.28;;;9.40;99.90;;;;;;5116226;27;20035;-81
2022/04/07 04:59:09;;;;;;;17.38;2.88;;;9.50;99.90;;;;;;5122472;27;20039;-81
2022/04/07 05:01:35;;;;;;;14.50;3.38;;;9.60;99.90;;;;;;5123944;27;20420;-80
2022/04/07 05:04:01;;;;;;;14.37;3.03;;;9.40;99.90;;;;;;5125856;27;20073;-80
2022/04/07 05:06:26;;;;;;;17.30;3.75;;;9.50;99.90;;;;;;5104840;27;20042;-81
2022/04/07 05:08:52;;;;;;;18.40;4.43;;;9.60;99.90;;;;;;5121419;27;20043;-81
2022/04/07 05:11:18;;;;;;;17.38;3.72;;;9.40;99.90;;;;;;5124380;27;20764;-81
2022/04/07 05:13:44;;;;;;;15.40;3.70;;;9.50;99.90;;;;;;5104148;27;20043;-80
2022/04/07 05:16:15;;;;;;;13.73;3.93;;;9.50;99.90;;;;;;5123657;27;20035;-80
2022/04/07 05:18:48;;;;;;;14.02;3.05;;;9.20;99.90;;;;;;5126456;27;20366;-80
2022/04/07 05:21:15;;;;;;;8.60;1.90;;;9.00;99.90;;;;;;5116193;27;20054;-79
2022/04/07 05:23:41;;;;;;;;;;;8.80;99.90;;;;;;5126195;27;20031;-81
2022/04/07 05:26:06;;;;;;;8.25;2.00;;;8.60;99.90;;;;;;5123459;27;19926;-81
2022/04/07 05:28:32;;;;;;;4.80;1.10;;;8.40;99.90;;;;;;5120233;27;20055;-81
2022/04/07 05:30:58;;;;;;;4.80;1.10;;;8.10;99.90;;;;;;5110546;27;20035;-81
2022/04/07 05:33:24;;;;;;;5.20;1.07;;;7.70;99.90;;;;;;5106633;27;20092;-82
2022/04/07 05:35:49;;;;;;;7.55;1.38;;;7.50;99.90;;;;;;5120808;27;20712;-82
2022/04/07 05:38:15;;;;;;;5.17;1.97;;;7.30;99.90;;;;;;5124627;27;20376;-82
2022/04/07 05:40:42;;;;;;;5.43;1.37;;;7.20;99.90;;;;;;5103546;28;20667;-81
2022/04/07 05:43:08;;;;;;;8.98;1.52;;;7.10;99.90;;;;;;5122286;27;20039;-81
2022/04/07 05:45:34;;;;;;;7.05;1.88;;;7.00;99.90;;;;;;5122674;27;20037;-81
2022/04/07 05:48:00;;;;;;;7.45;1.27;;;6.80;99.90;;;;;;5120768;27;20046;-81
2022/04/07 05:50:26;;;;;;;7.72;1.77;;;6.90;99.90;;;;;;5122434;27;20031;-82
2022/04/07 05:52:51;;;;;;;9.13;1.33;;;6.80;99.90;;;;;;5122149;27;20040;-82
2022/04/07 05:55:17;;;;;;;5.00;1.57;;;6.70;99.90;;;;;;5116867;27;20043;-82
2022/04/07 05:57:43;;;;;;;12.45;1.75;;;6.70;99.90;;;;;;5101808;27;20039;-82
2022/04/07 06:00:13;;;;;;;10.18;2.35;;;6.70;99.90;;;;;;5121819;27;20502;-82
2022/04/07 06:02:42;;;;;;;8.00;1.60;;;6.60;99.90;;;;;;5105764;27;20051;-81
2022/04/07 06:05:09;;;;;;;4.22;1.10;;;6.60;99.90;;;;;;5102796;27;20085;-82
2022/04/07 06:07:35;;;;;;;5.75;1.45;;;6.50;99.90;;;;;;5104700;27;20055;-82
2022/04/07 06:10:01;;;;;;;6.93;1.20;;;6.40;99.90;;;;;;5122714;27;20388;-82
2022/04/07 06:12:27;;;;;;;;;;;6.30;99.90;;;;;;5120595;27;20498;-82
2022/04/07 06:14:53;;;;;;;6.45;1.35;;;6.30;99.90;;;;;;5122037;27;19919;-82
2022/04/07 06:17:18;;;;;;;9.83;2.27;;;6.40;99.90;;;;;;5119608;27;20093;-82
2022/04/07 06:19:44;;;;;;;7.57;1.30;;;6.20;99.90;;;;;;5122098;27;20065;-82
2022/04/07 06:22:11;;;;;;;4.07;1.63;;;6.20;99.90;;;;;;5104849;27;20376;-82
2022/04/07 06:24:37;;;;;;;6.35;1.00;;;6.10;99.90;;;;;;5121310;27;20055;-81
2022/04/07 06:27:03;;;;;;;5.03;1.27;;;6.00;99.90;;;;;;5102678;27;20043;-81
2022/04/07 06:29:29;;;;;;;4.03;0.80;;;6.00;99.90;;;;;;5095583;27;20035;-81
2022/04/07 06:31:54;;;;;;;7.10;1.17;;;6.00;99.90;;;;;;5119335;27;20042;-82
2022/04/07 06:34:23;;;;;;;5.97;1.33;;;6.10;99.90;;;;;;5121012;27;20050;-81
2022/04/07 06:36:48;;;;;;;4.22;0.90;;;6.10;99.90;;;;;;5122565;27;20036;-80
2022/04/07 06:39:14;;;;;;;7.10;1.13;;;6.20;99.90;;;;;;5104983;28;20039;-81
2022/04/07 06:41:40;;;;;;;3.03;1.00;;;6.10;99.90;;;;;;5120238;27;20842;-81
2022/04/07 06:44:06;;;;;;;2.25;0.80;;;6.20;99.90;;;;;;5101597;27;20035;-81
2022/04/07 06:46:32;;;;;;;2.35;0.70;;;6.10;99.90;;;;;;5119317;27;20099;-81
2022/04/07 06:48:59;;;;;;;2.80;1.10;;;6.30;99.90;;;;;;5102324;27;20039;-80
2022/04/07 06:51:25;;;;;;;3.97;1.20;;;6.20;99.90;;;;;;5121173;27;20096;-81
2022/04/07 06:53:50;;;;;;;2.13;0.63;;;6.30;99.90;;;;;;5121803;27;20051;-80
2022/04/07 06:56:16;;;;;;;2.87;0.80;;;6.30;99.90;;;;;;5121725;27;20360;-80
2022/04/07 06:58:42;;;;;;;1.03;0.60;;;6.30;99.90;;;;;;5123192;27;20096;-80
2022/04/07 07:01:08;;;;;;;2.25;0.90;;;6.40;99.90;;;;;;5121095;27;20042;-80
2022/04/07 07:03:34;;;;;;;2.70;0.98;;;6.40;99.90;;;;;;5118486;27;20047;-81
2022/04/07 07:06:00;;;;;;;5.30;0.90;;;6.40;99.90;;;;;;5122200;27;20383;-80
2022/04/07 07:08:26;;;;;;;2.78;0.90;;;6.50;99.90;;;;;;5120050;27;20046;-81
2022/04/07 07:10:52;;;;;;;3.33;0.98;;;6.50;99.90;;;;;;5122781;27;20027;-80
2022/04/07 07:13:21;;;;;;;4.38;0.82;;;6.50;99.90;;;;;;5123522;27;20046;-81
2022/04/07 07:15:50;;;;;;;4.45;0.98;;;6.80;99.90;;;;;;5119634;27;20043;-81
2022/04/07 07:18:16;;;;;;;2.83;0.80;;;6.70;99.90;;;;;;5101992;28;20035;-80
2022/04/07 07:20:42;;;;;;;1.50;0.73;;;6.70;99.90;;;;;;5104190;27;20047;-80
2022/04/07 07:23:08;;;;;;;3.20;0.80;;;6.70;99.90;;;;;;5117975;27;20039;-81
2022/04/07 07:25:34;;;;;;;3.10;0.82;;;6.60;99.90;;;;;;5103104;27;20058;-80
2022/04/07 07:28:01;;;;;;;1.92;0.88;;;6.70;99.90;;;;;;5118733;27;20110;-80
2022/04/07 07:30:28;;;;;;;4.47;1.08;;;6.60;99.90;;;;;;5115694;27;20483;-81
2022/04/07 07:32:54;;;;;;;2.97;0.85;;;6.60;99.90;;;;;;5119370;27;20392;-80
2022/04/07 07:35:21;;;;;;;3.22;0.93;;;6.60;99.90;;;;;;5101439;27;20050;-80
2022/04/07 07:38:01;;;;;;;3.05;0.88;;;6.90;99.90;;;;;;5123807;27;20490;-80
2022/04/07 07:40:32;;;;;;;3.13;0.77;;;6.50;99.90;;;;;;5087540;27;20113;-80
2022/04/07 07:43:00;;;;;;;2.15;0.80;;;6.70;99.90;;;;;;5122260;27;20410;-80
2022/04/07 07:45:27;;;;;;;2.75;0.70;;;6.70;99.90;;;;;;5099192;28;20455;-81
2022/04/07 07:47:53;;;;;;;1.23;0.70;;;7.00;99.90;;;;;;5101776;28;20494;-80
2022/04/07 07:50:19;;;;;;;1.83;0.88;;;6.60;99.90;;;;;;5125816;27;20114;-81
2022/04/07 07:52:45;;;;;;;2.88;1.20;;;6.70;99.90;;;;;;5120848;27;20036;-82
2022/04/07 07:55:10;;;;;;;3.67;0.80;;;6.80;99.90;;;;;;5117976;27;20036;-80
2022/04/07 07:57:36;;;;;;;2.53;0.60;;;7.00;99.90;;;;;;5121353;27;20628;-81
2022/04/07 08:00:07;;;;;;;6.03;0.95;;;7.00;99.90;;;;;;5099755;28;20277;-81
2022/04/07 08:02:34;;;;;;;2.08;0.85;;;7.00;99.90;;;;;;5120156;28;21372;-81
2022/04/07 08:05:00;;;;;;;3.90;0.77;;;6.90;99.90;;;;;;5120814;27;20039;-80
2022/04/07 08:07:27;;;;;;;6.50;1.17;;;7.40;99.90;;;;;;5120214;28;20046;-80
2022/04/07 08:09:54;;;;;;;;;;;7.90;99.90;;;;;;5121309;28;20050;-80
2022/04/07 08:12:19;;;;;;;4.90;1.02;;;8.10;99.90;;;;;;5117520;28;19916;-81
2022/04/07 08:14:45;;;;;;;8.50;1.40;;;8.10;99.90;;;;;;5119361;28;20036;-81
2022/04/07 08:17:11;;;;;;;5.83;1.00;;;8.00;99.90;;;;;;5122944;28;20322;-80
2022/04/07 08:19:37;;;;;;;4.60;0.60;;;8.10;99.90;;;;;;5121914;28;20289;-81
2022/04/07 08:22:03;;;;;;;5.75;1.10;;;8.50;99.90;;;;;;5118437;27;20118;-80
2022/04/07 08:24:29;;;;;;;;;;;9.10;99.90;;;;;;5127474;27;20122;-81
2022/04/07 08:26:54;;;;;;;4.47;0.88;;;9.50;99.90;;;;;;5129682;27;20007;-81
2022/04/07 08:29:20;;;;;;;6.63;0.70;;;9.80;99.90;;;;;;5107687;27;20028;-81
2022/04/07 08:31:46;;;;;;;6.77;0.80;;;10.00;99.90;;;;;;5127181;27;20764;-81
2022/04/07 08:34:11;;;;;;;4.25;1.00;;;10.60;99.90;;;;;;5120567;27;20031;-81
2022/04/07 08:36:39;;;;;;;2.58;0.70;;;10.90;99.90;;;;;;5124032;27;20068;-81
2022/04/07 08:39:05;;;;;;;2.92;0.80;;;11.30;99.90;;;;;;5107145;27;20039;-81
2022/04/07 08:41:34;;;;;;;4.68;0.80;;;11.90;99.90;;;;;;5105368;27;20475;-81
2022/04/07 08:44:00;;;;;;;4.95;0.95;;;12.10;99.90;;;;;;5124907;27;20475;-80
2022/04/07 08:46:28;;;;;;;4.65;0.93;;;12.10;99.90;;;;;;5121262;27;20035;-81
2022/04/07 08:48:55;;;;;;;3.60;0.70;;;12.30;99.90;;;;;;5108051;27;20092;-82
2022/04/07 08:51:21;;;;;;;5.13;0.90;;;12.70;99.90;;;;;;5122523;27;20059;-81
2022/04/07 08:53:47;;;;;;;3.50;0.88;;;12.60;99.90;;;;;;5109305;27;20063;-81
2022/04/07 08:56:13;;;;;;;3.45;0.52;;;12.50;99.90;;;;;;5087993;27;20543;-81
2022/04/07 08:58:38;;;;;;;4.38;0.63;;;12.70;99.90;;;;;;5127334;27;20027;-81
2022/04/07 09:01:04;;;;;;;3.05;0.93;;;13.00;99.90;;;;;;5126611;27;20072;-80
2022/04/07 09:03:30;;;;;;;5.88;1.10;;;12.70;99.90;;;;;;5123888;27;20110;-81
2022/04/07 09:05:58;;;;;;;5.20;0.80;;;12.70;99.90;;;;;;5126458;27;20563;-81
2022/04/07 09:08:39;;;;;;;7.20;0.88;;;12.90;99.90;;;;;;5124790;27;20031;-81
2022/04/07 09:11:07;;;;;;;3.45;0.80;;;12.80;99.90;;;;;;5121633;27;20077;-80
2022/04/07 09:13:35;;;;;;;6.35;0.80;;;12.90;99.90;;;;;;5108734;27;20051;-81
2022/04/07 09:16:05;;;;;;;6.50;1.42;;;13.00;99.90;;;;;;5120649;27;20100;-81
2022/04/07 09:18:37;;;;;;;4.82;1.17;;;13.20;99.90;;;;;;5117902;27;20122;-80
2022/04/07 09:21:15;;;;;;;6.57;1.05;;;12.90;99.90;;;;;;5125782;27;20043;-80
2022/04/07 09:23:42;;;;;;;4.95;0.88;;;12.60;99.90;;;;;;5118696;27;20043;-81
2022/04/07 09:26:12;;;;;;;4.65;0.90;;;12.60;99.90;;;;;;5122090;27;20075;-80
2022/04/07 09:28:38;;;;;;;5.82;1.13;;;12.70;99.90;;;;;;5115375;27;20100;-80
2022/04/07 09:31:04;;;;;;;7.50;1.08;;;12.50;99.90;;;;;;5120500;27;20421;-80
2022/04/07 09:33:30;;;;;;;7.43;1.30;;;12.20;99.90;;;;;;5125997;27;20043;-80
2022/04/07 09:36:07;;;;;;;7.82;1.00;;;12.10;99.90;;;;;;5122280;27;20550;-81
2022/04/07 09:38:39;;;;;;;10.50;1.17;;;11.90;99.90;;;;;;5120763;27;20047;-81
2022/04/07 09:41:13;;;;;;;10.15;1.48;;;11.90;99.90;;;;;;5117185;27;20104;-81
2022/04/07 09:43:42;;;;;;;6.57;1.25;;;11.50;99.90;;;;;;5120030;27;20039;-81
2022/04/07 09:46:10;;;;;;;8.52;1.65;;;11.30;99.90;;;;;;5127126;27;20053;-80
2022/04/07 09:48:36;;;;;;;7.82;1.50;;;11.20;99.90;;;;;;5122746;27;20078;-80
2022/04/07 09:51:08;;;;;;;10.18;1.23;;;11.30;99.90;;;;;;5108683;27;20276;-81
2022/04/07 09:53:39;;;;;;;5.95;1.10;;;11.80;99.90;;;;;;5125790;27;20045;-80
2022/04/07 09:56:08;;;;;;;4.85;1.10;;;12.20;99.90;;;;;;5117923;27;20058;-79
2022/04/07 09:58:35;;;;;;;4.90;1.02;;;12.50;99.90;;;;;;5129003;27;20046;-81
2022/04/07 10:01:04;;;;;;;7.15;1.20;;;12.50;99.90;;;;;;5101003;28;20058;-80
2022/04/07 10:03:31;;;;;;;8.10;1.42;;;12.50;99.90;;;;;;5098896;27;20044;-80
2022/04/07 10:06:00;;;;;;;4.47;1.10;;;12.30;99.90;;;;;;5113340;27;20074;-81
2022/04/07 10:08:26;;;;;;;7.95;1.27;;;11.80;99.90;;;;;;5121720;27;20486;-80
2022/04/07 10:10:53;;;;;;;6.45;1.40;;;11.40;99.90;;;;;;5122529;27;20564;-80
2022/04/07 10:13:20;;;;;;;7.97;1.23;;;11.40;99.90;;;;;;5121871;27;20502;-80
2022/04/07 10:15:47;;;;;;;8.15;1.55;;;11.90;99.90;;;;;;5105151;27;21480;-80
2022/04/07 10:18:34;;;;;;;4.03;1.20;;;12.40;99.90;;;;;;5129520;27;20525;-81
2022/04/07 10:21:02;;;;;;;4.75;1.23;;;12.70;99.90;;;;;;5121291;27;20083;-80
2022/04/07 10:23:56;;;;;;;8.85;1.60;;;12.60;99.90;;;;;;5119456;27;20043;-80
2022/04/07 10:26:24;;;;;;;9.40;1.77;;;12.20;99.90;;;;;;5116528;27;20487;-80
2022/04/07 10:28:56;;;;;;;6.22;1.25;;;11.50;99.90;;;;;;5119732;27;20498;-81
2022/04/07 10:31:22;;;;;;;5.28;1.17;;;10.60;99.90;;;;;;5126456;27;20035;-79
2022/04/07 10:33:49;;;;;;;3.08;1.08;;;10.40;99.90;;;;;;5117748;27;20189;-79
2022/04/07 10:36:19;;;;;;;6.80;1.50;;;10.80;99.90;;;;;;5120438;27;20071;-80
2022/04/07 10:38:47;;;;;;;5.50;1.35;;;10.70;99.90;;;;;;5121600;27;20046;-80
2022/04/07 10:41:36;;;;;;;6.93;1.30;;;10.80;99.90;;;;;;5101071;27;20043;-80
2022/04/07 10:44:12;;;;;;;9.15;1.90;;;10.80;99.90;;;;;;5086468;28;20086;-80
2022/04/07 10:46:37;;;;;;;8.05;1.45;;;10.90;99.90;;;;;;5126124;27;20412;-80
2022/04/07 10:49:09;;;;;;;9.27;1.70;;;10.80;99.90;;;;;;5107349;27;20070;-80
2022/04/07 10:51:49;;;;;;;7.28;1.20;;;10.80;99.90;;;;;;5119123;27;20388;-81
2022/04/07 10:54:15;;;;;;;6.18;1.50;;;10.30;99.90;;;;;;5122750;27;20032;-80
2022/04/07 10:56:49;;;;;;;7.97;2.15;;;10.20;99.90;;;;;;5115833;27;20039;-80
2022/04/07 10:59:19;;;;;;;7.88;1.52;;;10.00;99.90;;;;;;5124362;27;20574;-81
2022/04/07 11:01:53;;;;;;;7.90;1.52;;;9.90;99.90;;;;;;5104839;27;20039;-80
2022/04/07 11:07:05;;;;;;;12.27;1.83;;;10.20;99.90;;;;;;5121310;27;20074;-81
2022/04/07 11:09:41;;;;;;;13.27;1.63;;;10.10;99.90;;;;;;5126463;27;20047;-80
2022/04/07 11:12:31;;;;;;;10.02;1.52;;;10.40;99.90;;;;;;5116532;27;20031;-80
2022/04/07 11:15:03;;;;;;;10.02;1.73;;;10.30;99.90;;;;;;5116149;27;20372;-81
2022/04/07 11:17:44;;;;;;;7.85;1.77;;;10.30;99.90;;;;;;5124420;27;20043;-81
2022/04/07 11:20:26;;;;;;;9.93;2.08;;;10.70;99.90;;;;;;5100641;28;20119;-81
2022/04/07 11:23:05;;;;;;;8.23;1.88;;;11.20;99.90;;;;;;5122698;27;20044;-81
2022/04/07 11:25:40;;;;;;;9.52;2.67;;;12.00;99.90;;;;;;5109815;28;20488;-81
2022/04/07 11:28:22;;;;;;;7.25;1.60;;;12.50;99.90;;;;;;5113073;27;20042;-81
2022/04/07 11:30:52;;;;;;;9.55;1.63;;;12.90;99.90;;;;;;5106302;27;20030;-81
2022/04/07 11:33:25;;;;;;;10.35;1.67;;;12.80;99.90;;;;;;5120954;27;20501;-81
2022/04/07 11:36:00;;;;;;;10.93;1.88;;;12.40;99.90;;;;;;5118121;27;20042;-80
2022/04/07 11:38:26;;;;;;;11.93;1.73;;;12.10;99.90;;;;;;5125678;27;20047;-80
2022/04/07 11:40:59;;;;;;;10.35;2.50;;;11.80;99.90;;;;;;5120945;27;20038;-81
2022/04/07 11:43:25;;;;;;;10.55;2.53;;;11.40;99.90;;;;;;5099059;28;20035;-81
2022/04/07 11:45:55;;;;;;;11.07;2.17;;;11.10;99.90;;;;;;5123141;27;20066;-80
2022/04/07 11:48:21;;;;;;;9.63;2.00;;;11.10;99.90;;;;;;5098534;28;20067;-80
2022/04/07 11:50:47;;;;;;;10.32;1.75;;;11.10;99.90;;;;;;5113884;27;20035;-80
2022/04/07 11:53:13;;;;;;;10.38;1.90;;;11.20;99.90;;;;;;5120898;27;20559;-81
2022/04/07 11:55:38;;;;;;;9.80;1.92;;;11.20;99.90;;;;;;5120088;27;20052;-80
2022/04/07 11:58:04;;;;;;;5.88;1.58;;;10.90;99.90;;;;;;5125333;27;20113;-80
2022/04/07 12:00:33;;;;;;;8.97;1.47;;;10.90;99.90;;;;;;5102419;28;20126;-80
2022/04/07 12:02:59;;;;;;;9.98;2.00;;;11.00;99.90;;;;;;5115381;28;20305;-81
2022/04/07 12:05:25;;;;;;;12.00;1.90;;;11.10;99.90;;;;;;5117248;28;20047;-81
2022/04/07 12:07:50;;;;;;;10.43;2.20;;;11.20;99.90;;;;;;5102135;28;20046;-80
2022/04/07 12:10:16;;;;;;;9.70;1.92;;;11.50;99.90;;;;;;5112768;28;20375;-80
2022/04/07 12:12:42;;;;;;;6.43;1.42;;;11.70;99.90;;;;;;5120084;28;20490;-81
2022/04/07 12:15:15;;;;;;;7.65;1.63;;;11.80;99.90;;;;;;5123466;28;20043;-80
2022/04/07 12:17:59;;;;;;;8.65;1.38;;;11.80;99.90;;;;;;5120544;28;20405;-80
2022/04/07 12:20:25;;;;;;;9.48;1.42;;;12.00;99.90;;;;;;5105622;28;20510;-80
2022/04/07 12:23:05;;;;;;;14.52;2.33;;;12.40;99.90;;;;;;5122423;28;20107;-80
2022/04/07 12:25:31;;;;;;;9.90;1.45;;;12.40;99.90;;;;;;5113254;28;20051;-80
2022/04/07 12:28:39;;;;;;;7.57;1.65;;;12.10;99.90;;;;;;5103050;28;20710;-80
2022/04/07 12:31:20;;;;;;;8.77;2.03;;;11.60;99.90;;;;;;5107049;28;20074;-81
2022/04/07 12:33:49;;;;;;;4.00;1.23;;;11.10;99.90;;;;;;5116967;28;20432;-81
2022/04/07 12:36:36;;;;;;;3.30;0.70;;;9.60;99.90;;;;;;5120273;28;20027;-81
2022/04/07 12:39:13;;;;;;;4.50;1.20;;;8.70;99.90;;;;;;5116023;28;20100;-80
2022/04/07 12:41:38;;;;;;;;;;;8.80;99.90;;;;;;5094216;28;20513;-80
2022/04/07 12:44:05;;;;;;;6.00;1.15;;;9.40;99.90;;;;;;5121554;28;19920;-80
2022/04/07 12:46:53;;;;;;;6.95;1.60;;;10.20;99.90;;;;;;5099629;28;20070;-80
2022/04/07 12:49:28;;;;;;;6.75;1.48;;;11.10;99.90;;;;;;5108536;28;20040;-80
2022/04/07 12:52:11;;;;;;;8.13;1.48;;;11.50;99.90;;;;;;5122757;27;20039;-80
2022/04/07 12:54:38;;;;;;;7.60;1.30;;;11.20;99.90;;;;;;5123359;27;20557;-79
2022/04/07 12:57:12;;;;;;;7.13;1.20;;;10.80;99.90;;;;;;5104393;28;20035;-80